Time;durP1;ratioP1;P1;durP2;ratioP2;P2;SDS_P1;SDS_P2;PMS_P1;PMS_P2;Temp;Humidity;BMP_temperature;BMP_pressure;BME280_temperature;BME280_humidity;BME280_pressure;Samples;Min_cycle;Max_cycle;Signal;HPM_P1;HPM_P2
2024/02/23 00:00:50;;;;;;;;;;;;;;;;;;6315265;28;19908;-78
2024/02/23 00:03:50;;;;;;;;;;;;;;;;;;6296329;28;19908;-78
2024/02/23 00:06:50;;;;;;;;;;;;;;;;;;6299267;28;19916;-77
2024/02/23 00:09:50;;;;;;;;;;;;;;;;;;6314490;28;19920;-78
2024/02/23 00:12:51;;;;;;;;;;;;;;;;;;6319260;27;20253;-78
2024/02/23 00:15:51;;;;;;;;;;;;;;;;;;6304067;28;19915;-78
2024/02/23 00:18:51;;;;;;;;;;;;;;;;;;6297301;28;20293;-78
2024/02/23 00:21:52;;;;;;;;;;;;;;;;;;6299401;28;19912;-78
2024/02/23 00:24:52;;;;;;;;;;;;;;;;;;6298856;28;20284;-78
2024/02/23 00:27:53;;;;;;;;;;;;;;;;;;6297830;28;20236;-78
2024/02/23 00:30:53;;;;;;;;;;;;;;;;;;6311248;28;19948;-78
2024/02/23 00:33:53;;;;;;;;;;;;;;;;;;6299068;28;19991;-78
2024/02/23 00:36:53;;;;;;;;;;;;;;;;;;6304430;28;19917;-78
2024/02/23 00:39:53;;;;;;;;;;;;;;;;;;6311368;28;19909;-78
2024/02/23 00:42:53;;;;;;;;;;;;;;;;;;6297390;28;19908;-78
2024/02/23 00:45:53;;;;;;;;;;;;;;;;;;6299184;28;19965;-78
2024/02/23 00:48:54;;;;;;;;;;;;;;;;;;6294260;28;20296;-78
2024/02/23 00:51:55;;;;;;;;;;;;;;;;;;6296637;28;19920;-74
2024/02/23 00:54:55;;;;;;;;;;;;;;;;;;6295302;28;19916;-74
2024/02/23 00:57:56;;;;;;;;;;;;;;;;;;6297198;28;20259;-75
2024/02/23 01:00:56;;;;;;;;;;;;;;;;;;6295478;28;20440;-75
2024/02/23 01:03:56;;;;;;;;;;;;;;;;;;6293857;28;20024;-75
2024/02/23 01:06:56;;;;;;;;;;;;;;;;;;6295980;28;19908;-75
2024/02/23 01:09:58;;;;;;;;;;;;;;;;;;6299307;28;19923;-75
2024/02/23 01:12:58;;;;;;;;;;;;;;;;;;6295502;28;20063;-75
2024/02/23 01:15:58;;;;;;;;;;;;;;;;;;6297806;28;20442;-75
2024/02/23 01:19:15;;;;;;;;;;;;;;;;;;6322510;27;1994659;-75
2024/02/23 01:22:16;;;;;;;;;;;;;;;;;;6393027;27;19919;-75
2024/02/23 01:25:16;;;;;;;;;;;;;;;;;;6391561;27;19937;-74
2024/02/23 01:28:16;;;;;;;;;;;;;;;;;;6392535;27;19958;-74
2024/02/23 01:31:16;;;;;;;;;;;;;;;;;;6391209;27;19930;-75
2024/02/23 01:34:16;;;;;;;;;;;;;;;;;;6391581;27;19912;-74
2024/02/23 01:37:17;;;;;;;;;;;;;;;;;;6392553;27;19916;-75
2024/02/23 01:40:17;;;;;;;;;;;;;;;;;;6394049;27;20280;-75
2024/02/23 01:43:17;;;;;;;;;;;;;;;;;;6392710;27;20359;-74
2024/02/23 01:46:19;;;;;;;;;;;;;;;;;;6391973;27;20001;-75
2024/02/23 01:49:19;;;;;;;;;;;;;;;;;;6393822;27;20291;-75
2024/02/23 01:52:19;;;;;;;;;;;;;;;;;;6394776;27;19918;-75
2024/02/23 01:55:19;;;;;;;;;;;;;;;;;;6397399;27;20386;-74
2024/02/23 01:58:19;;;;;;;;;;;;;;;;;;6389754;27;20265;-75
2024/02/23 02:01:19;;;;;;;;;;;;;;;;;;6392565;27;19927;-74
2024/02/23 02:04:19;;;;;;;;;;;;;;;;;;6390412;27;20285;-73
2024/02/23 02:07:22;;;;;;;;;;;;;;;;;;6392834;27;19912;-74
2024/02/23 02:10:22;;;;;;;;;;;;;;;;;;6398420;27;19915;-74
2024/02/23 02:13:22;;;;;;;;;;;;;;;;;;6378779;27;20290;-75
2024/02/23 02:16:23;;;;;;;;;;;;;;;;;;6390162;27;20264;-75
2024/02/23 02:19:23;;;;;;;;;;;;;;;;;;6392510;27;20303;-74
2024/02/23 02:22:23;;;;;;;;;;;;;;;;;;6391368;27;20205;-75
2024/02/23 02:25:23;;;;;;;;;;;;;;;;;;6390037;27;19919;-74
2024/02/23 02:28:23;;;;;;;;;;;;;;;;;;6383008;27;19956;-74
2024/02/23 02:31:23;;;;;;;;;;;;;;;;;;6372569;27;19919;-75
2024/02/23 02:34:24;;;;;;;;;;;;;;;;;;6377550;27;19955;-74
2024/02/23 02:37:24;;;;;;;;;;;;;;;;;;6372723;27;20068;-74
2024/02/23 02:40:24;;;;;;;;;;;;;;;;;;6371682;27;19919;-74
2024/02/23 02:43:24;;;;;;;;;;;;;;;;;;6373669;27;19916;-74
2024/02/23 02:46:24;;;;;;;;;;;;;;;;;;6373143;27;19911;-73
2024/02/23 02:49:24;;;;;;;;;;;;;;;;;;6372189;27;19918;-74
2024/02/23 02:52:24;;;;;;;;;;;;;;;;;;6372885;27;19912;-74
2024/02/23 02:55:24;;;;;;;;;;;;;;;;;;6356389;27;19912;-74
2024/02/23 02:58:24;;;;;;;;;;;;;;;;;;6373382;27;19964;-75
2024/02/23 03:01:25;;;;;;;;;;;;;;;;;;6358775;27;19919;-74
2024/02/23 03:04:25;;;;;;;;;;;;;;;;;;6373369;27;19915;-74
2024/02/23 03:07:25;;;;;;;;;;;;;;;;;;6374784;27;19912;-74
2024/02/23 03:10:25;;;;;;;;;;;;;;;;;;6356092;27;19919;-74
2024/02/23 03:13:25;;;;;;;;;;;;;;;;;;6350013;27;19920;-78
2024/02/23 03:16:26;;;;;;;;;;;;;;;;;;6321169;28;19924;-78
2024/02/23 03:19:27;;;;;;;;;;;;;;;;;;6326016;28;19919;-77
2024/02/23 03:22:27;;;;;;;;;;;;;;;;;;6318124;28;20402;-78
2024/02/23 03:25:27;;;;;;;;;;;;;;;;;;6321891;28;19923;-78
2024/02/23 03:28:27;;;;;;;;;;;;;;;;;;6320028;28;19968;-78
2024/02/23 03:31:27;;;;;;;;;;;;;;;;;;6324707;28;19916;-78
2024/02/23 03:34:27;;;;;;;;;;;;;;;;;;6321648;28;19923;-78
2024/02/23 03:37:27;;;;;;;;;;;;;;;;;;6304852;28;19924;-78
2024/02/23 03:40:27;;;;;;;;;;;;;;;;;;6318233;28;19916;-78
2024/02/23 03:43:28;;;;;;;;;;;;;;;;;;6321270;28;19924;-78
2024/02/23 03:46:28;;;;;;;;;;;;;;;;;;6305508;28;20322;-78
2024/02/23 03:49:28;;;;;;;;;;;;;;;;;;6321377;28;19912;-78
2024/02/23 03:52:28;;;;;;;;;;;;;;;;;;6302989;28;20686;-78
2024/02/23 03:55:28;;;;;;;;;;;;;;;;;;6320667;28;20300;-78
2024/02/23 03:58:28;;;;;;;;;;;;;;;;;;6318706;28;20300;-78
2024/02/23 04:01:28;;;;;;;;;;;;;;;;;;6323585;28;20407;-78
2024/02/23 04:04:28;;;;;;;;;;;;;;;;;;6320356;28;19927;-78
2024/02/23 04:07:29;;;;;;;;;;;;;;;;;;6319126;28;19912;-78
2024/02/23 04:10:29;;;;;;;;;;;;;;;;;;6321209;28;19916;-78
2024/02/23 04:13:29;;;;;;;;;;;;;;;;;;6319044;28;19974;-78
2024/02/23 04:16:29;;;;;;;;;;;;;;;;;;6325974;28;20002;-78
2024/02/23 04:19:29;;;;;;;;;;;;;;;;;;6301992;28;20011;-78
2024/02/23 04:22:29;;;;;;;;;;;;;;;;;;6321989;28;20361;-74
2024/02/23 04:25:29;;;;;;;;;;;;;;;;;;6326281;28;19916;-74
2024/02/23 04:28:31;;;;;;;;;;;;;;;;;;6321477;28;19912;-74
2024/02/23 04:31:31;;;;;;;;;;;;;;;;;;6322294;28;19912;-74
2024/02/23 04:34:31;;;;;;;;;;;;;;;;;;6321056;28;19967;-74
2024/02/23 04:37:31;;;;;;;;;;;;;;;;;;6323061;28;19931;-74
2024/02/23 04:40:32;;;;;;;;;;;;;;;;;;6322507;28;19912;-73
2024/02/23 04:43:32;;;;;;;;;;;;;;;;;;6317748;28;19912;-74
2024/02/23 04:46:34;;;;;;;;;;;;;;;;;;6319426;28;19957;-74
2024/02/23 04:49:34;;;;;;;;;;;;;;;;;;6322028;28;19916;-74
2024/02/23 04:52:34;;;;;;;;;;;;;;;;;;6320076;28;19979;-74
2024/02/23 04:55:34;;;;;;;;;;;;;;;;;;6318996;28;19934;-74
2024/02/23 04:58:34;;;;;;;;;;;;;;;;;;6320706;28;19920;-74
2024/02/23 05:01:34;;;;;;;;;;;;;;;;;;6325221;28;19912;-74
2024/02/23 05:04:35;;;;;;;;;;;;;;;;;;6322942;28;19934;-74
2024/02/23 05:07:35;;;;;;;;;;;;;;;;;;6324218;28;19973;-74
2024/02/23 05:10:35;;;;;;;;;;;;;;;;;;6318792;28;19912;-73
2024/02/23 05:13:35;;;;;;;;;;;;;;;;;;6319247;28;20023;-75
2024/02/23 05:16:37;;;;;;;;;;;;;;;;;;6319221;28;19915;-74
2024/02/23 05:19:37;;;;;;;;;;;;;;;;;;6324618;28;19912;-75
2024/02/23 05:22:37;;;;;;;;;;;;;;;;;;6319029;28;19960;-74
2024/02/23 05:25:37;;;;;;;;;;;;;;;;;;6302869;28;20117;-75
2024/02/23 05:28:37;;;;;;;;;;;;;;;;;;6318122;28;19912;-74
2024/02/23 05:31:38;;;;;;;;;;;;;;;;;;6320772;28;19912;-74
2024/02/23 05:34:38;;;;;;;;;;;;;;;;;;6318553;28;20359;-75
2024/02/23 05:37:38;;;;;;;;;;;;;;;;;;6319683;28;20305;-74
2024/02/23 05:40:38;;;;;;;;;;;;;;;;;;6318979;28;20371;-75
2024/02/23 05:43:38;;;;;;;;;;;;;;;;;;6317378;28;20008;-74
2024/02/23 05:46:38;;;;;;;;;;;;;;;;;;6323586;28;19941;-74
2024/02/23 05:49:38;;;;;;;;;;;;;;;;;;6319863;28;19918;-74
2024/02/23 05:52:39;;;;;;;;;;;;;;;;;;6319184;28;19920;-74
2024/02/23 05:55:39;;;;;;;;;;;;;;;;;;6318590;28;19919;-74
2024/02/23 05:58:39;;;;;;;;;;;;;;;;;;6319095;28;19965;-74
2024/02/23 06:01:39;;;;;;;;;;;;;;;;;;6321284;28;20368;-74
2024/02/23 06:04:40;;;;;;;;;;;;;;;;;;6321598;28;20288;-75
2024/02/23 06:07:40;;;;;;;;;;;;;;;;;;6323784;28;20285;-74
2024/02/23 06:10:42;;;;;;;;;;;;;;;;;;6322577;28;19920;-74
2024/02/23 06:13:43;;;;;;;;;;;;;;;;;;6325980;28;20366;-75
2024/02/23 06:16:43;;;;;;;;;;;;;;;;;;6322272;28;19931;-74
2024/02/23 06:19:43;;;;;;;;;;;;;;;;;;6324998;28;19943;-74
2024/02/23 06:22:43;;;;;;;;;;;;;;;;;;6325987;28;19963;-74
2024/02/23 06:25:46;;;;;;;;;;;;;;;;;;6323089;28;20027;-74
2024/02/23 06:28:46;;;;;;;;;;;;;;;;;;6322616;28;20292;-73
2024/02/23 06:31:49;;;;;;;;;;;;;;;;;;6321017;28;19977;-74
2024/02/23 06:34:49;;;;;;;;;;;;;;;;;;6324143;28;19912;-74
2024/02/23 06:37:49;;;;;;;;;;;;;;;;;;6304020;28;19927;-74
2024/02/23 06:40:49;;;;;;;;;;;;;;;;;;6321631;28;19912;-74
2024/02/23 06:43:52;;;;;;;;;;;;;;;;;;6318571;28;19916;-74
2024/02/23 06:46:52;;;;;;;;;;;;;;;;;;6322313;28;19916;-74
2024/02/23 06:49:52;;;;;;;;;;;;;;;;;;6318292;28;20301;-74
2024/02/23 06:52:52;;;;;;;;;;;;;;;;;;6320887;28;20320;-74
2024/02/23 06:55:52;;;;;;;;;;;;;;;;;;6320395;28;20264;-74
2024/02/23 06:58:52;;;;;;;;;;;;;;;;;;6316504;28;19920;-74
2024/02/23 07:01:53;;;;;;;;;;;;;;;;;;6320951;28;19916;-74
2024/02/23 07:04:54;;;;;;;;;;;;;;;;;;6318565;28;20295;-74
2024/02/23 07:07:54;;;;;;;;;;;;;;;;;;6314541;28;20338;-74
2024/02/23 07:10:54;;;;;;;;;;;;;;;;;;6307601;28;19920;-73
2024/02/23 07:13:55;;;;;;;;;;;;;;;;;;6331362;27;19951;-74
2024/02/23 07:16:55;;;;;;;;;;;;;;;;;;6345111;27;19986;-74
2024/02/23 07:20:02;;;;;;;;;;;;;;;;;;6342431;27;19946;-75
2024/02/23 07:23:03;;;;;;;;;;;;;;;;;;6344300;27;20452;-75
2024/02/23 07:26:03;;;;;;;;;;;;;;;;;;6343669;27;19920;-75
2024/02/23 07:29:03;;;;;;;;;;;;;;;;;;6348561;27;19916;-75
2024/02/23 07:32:03;;;;;;;;;;;;;;;;;;6344130;27;20269;-75
2024/02/23 07:35:03;;;;;;;;;;;;;;;;;;6342318;27;20359;-75
2024/02/23 07:38:04;;;;;;;;;;;;;;;;;;6344543;27;20010;-74
2024/02/23 07:41:04;;;;;;;;;;;;;;;;;;6344538;27;19942;-74
2024/02/23 07:44:04;;;;;;;;;;;;;;;;;;6344599;27;19998;-74
2024/02/23 07:47:04;;;;;;;;;;;;;;;;;;6343458;27;20291;-75
2024/02/23 07:50:04;;;;;;;;;;;;;;;;;;6342004;28;20280;-74
2024/02/23 07:53:04;;;;;;;;;;;;;;;;;;6345698;27;19950;-74
2024/02/23 07:56:04;;;;;;;;;;;;;;;;;;6342309;27;20007;-74
2024/02/23 07:59:04;;;;;;;;;;;;;;;;;;6342096;27;19949;-74
2024/02/23 08:02:05;;;;;;;;;;;;;;;;;;6345433;27;19926;-78
2024/02/23 08:05:05;;;;;;;;;;;;;;;;;;6343115;27;19922;-78
2024/02/23 08:08:06;;;;;;;;;;;;;;;;;;6343424;27;19912;-78
2024/02/23 08:11:06;;;;;;;;;;;;;;;;;;6344804;27;19951;-77
2024/02/23 08:14:07;;;;;;;;;;;;;;;;;;6340696;27;19924;-76
2024/02/23 08:17:07;;;;;;;;;;;;;;;;;;6339392;27;20315;-77
2024/02/23 08:20:07;;;;;;;;;;;;;;;;;;6347453;27;19920;-77
2024/02/23 08:23:08;;;;;;;;;;;;;;;;;;6342596;27;19920;-78
2024/02/23 08:26:10;;;;;;;;;;;;;;;;;;6344816;27;20386;-78
2024/02/23 08:29:10;;;;;;;;;;;;;;;;;;6344506;27;19931;-77
2024/02/23 08:32:10;;;;;;;;;;;;;;;;;;6343200;27;19916;-78
2024/02/23 08:35:10;;;;;;;;;;;;;;;;;;6346946;27;19916;-78
2024/02/23 08:38:10;;;;;;;;;;;;;;;;;;6344029;27;19920;-82
2024/02/23 08:41:10;;;;;;;;;;;;;;;;;;6344879;27;19912;-78
2024/02/23 08:44:10;;;;;;;;;;;;;;;;;;6345060;27;19912;-77
2024/02/23 08:47:10;;;;;;;;;;;;;;;;;;6345452;27;19912;-78
2024/02/23 08:50:11;;;;;;;;;;;;;;;;;;6346100;27;19912;-78
2024/02/23 08:53:11;;;;;;;;;;;;;;;;;;5992550;27;10000054;-78
2024/02/23 08:56:11;;;;;;;;;;;;;;;;;;6344532;27;19911;-78
2024/02/23 08:59:12;;;;;;;;;;;;;;;;;;6346415;27;20018;-78
2024/02/23 09:02:12;;;;;;;;;;;;;;;;;;6345021;27;19912;-78
2024/02/23 09:05:12;;;;;;;;;;;;;;;;;;6347589;27;20256;-78
2024/02/23 09:08:12;;;;;;;;;;;;;;;;;;6344904;28;19998;-80
2024/02/23 09:11:13;;;;;;;;;;;;;;;;;;6342697;28;20008;-78
2024/02/23 09:14:14;;;;;;;;;;;;;;;;;;6325627;28;19924;-79
2024/02/23 09:17:14;;;;;;;;;;;;;;;;;;6318796;28;20017;-78
2024/02/23 09:20:14;;;;;;;;;;;;;;;;;;6325122;28;19948;-79
2024/02/23 09:23:14;;;;;;;;;;;;;;;;;;6321523;28;20104;-79
2024/02/23 09:26:15;;;;;;;;;;;;;;;;;;6317173;28;19979;-78
2024/02/23 09:29:15;;;;;;;;;;;;;;;;;;6319141;28;19912;-79
2024/02/23 09:32:15;;;;;;;;;;;;;;;;;;6318406;28;20369;-79
2024/02/23 09:35:15;;;;;;;;;;;;;;;;;;6321581;28;19916;-78
2024/02/23 09:38:15;;;;;;;;;;;;;;;;;;6322143;28;20341;-78
2024/02/23 09:41:16;;;;;;;;;;;;;;;;;;6322536;28;20288;-79
2024/02/23 09:44:16;;;;;;;;;;;;;;;;;;6325657;28;19916;-78
2024/02/23 09:47:17;;;;;;;;;;;;;;;;;;6325330;28;19920;-79
2024/02/23 09:50:17;;;;;;;;;;;;;;;;;;6326875;28;19912;-78
2024/02/23 09:53:17;;;;;;;;;;;;;;;;;;6324117;28;19920;-79
2024/02/23 09:56:19;;;;;;;;;;;;;;;;;;6324809;28;19955;-79
2024/02/23 09:59:19;;;;;;;;;;;;;;;;;;6323239;28;20392;-79
2024/02/23 10:02:20;;;;;;;;;;;;;;;;;;6321881;28;19924;-78
2024/02/23 10:05:20;;;;;;;;;;;;;;;;;;6325191;28;19920;-78
2024/02/23 10:08:21;;;;;;;;;;;;;;;;;;6333674;28;19920;-78
2024/02/23 10:11:21;;;;;;;;;;;;;;;;;;6322957;28;19920;-78
2024/02/23 10:14:21;;;;;;;;;;;;;;;;;;6334060;28;19980;-78
2024/02/23 10:17:21;;;;;;;;;;;;;;;;;;6322833;28;19927;-77
2024/02/23 10:20:21;;;;;;;;;;;;;;;;;;6329986;28;20007;-79
2024/02/23 10:23:22;;;;;;;;;;;;;;;;;;6322045;28;19951;-77
2024/02/23 10:26:22;;;;;;;;;;;;;;;;;;6335139;28;19955;-75
2024/02/23 10:29:22;;;;;;;;;;;;;;;;;;6326426;28;19919;-75
2024/02/23 10:32:23;;;;;;;;;;;;;;;;;;6326522;28;19908;-75
2024/02/23 10:35:23;;;;;;;;;;;;;;;;;;6347637;28;19915;-75
2024/02/23 10:38:23;;;;;;;;;;;;;;;;;;6327153;28;19924;-77
2024/02/23 10:41:23;;;;;;;;;;;;;;;;;;6326585;28;19916;-76
2024/02/23 10:44:23;;;;;;;;;;;;;;;;;;6331380;28;19968;-76
2024/02/23 10:47:23;;;;;;;;;;;;;;;;;;6340562;28;19961;-76
2024/02/23 10:50:23;;;;;;;;;;;;;;;;;;6351199;28;19911;-76
2024/02/23 10:53:23;;;;;;;;;;;;;;;;;;6329317;28;19912;-76
2024/02/23 10:56:25;;;;;;;;;;;;;;;;;;6327296;28;19923;-76
2024/02/23 10:59:25;;;;;;;;;;;;;;;;;;6324947;28;19920;-75
2024/02/23 11:02:26;;;;;;;;;;;;;;;;;;6321294;28;19955;-76
2024/02/23 11:05:26;;;;;;;;;;;;;;;;;;6336662;28;20007;-76
2024/02/23 11:08:26;;;;;;;;;;;;;;;;;;6328884;28;19923;-76
2024/02/23 11:11:26;;;;;;;;;;;;;;;;;;6326717;28;20018;-77
2024/02/23 11:14:26;;;;;;;;;;;;;;;;;;6345264;27;19920;-76
2024/02/23 11:17:27;;;;;;;;;;;;;;;;;;6349235;27;19974;-76
2024/02/23 11:20:27;;;;;;;;;;;;;;;;;;6360260;27;20010;-77
2024/02/23 11:23:27;;;;;;;;;;;;;;;;;;6349854;27;20371;-76
2024/02/23 11:26:27;;;;;;;;;;;;;;;;;;6365894;27;20382;-76
2024/02/23 11:29:28;;;;;;;;;;;;;;;;;;6373970;27;19914;-78
2024/02/23 11:32:28;;;;;;;;;;;;;;;;;;6369688;27;19935;-79
2024/02/23 11:35:29;;;;;;;;;;;;;;;;;;6361710;27;20368;-77
2024/02/23 11:38:29;;;;;;;;;;;;;;;;;;6359626;27;19978;-77
2024/02/23 11:41:29;;;;;;;;;;;;;;;;;;6372607;27;20393;-76
2024/02/23 11:44:29;;;;;;;;;;;;;;;;;;6347863;27;20343;-77
2024/02/23 11:47:29;;;;;;;;;;;;;;;;;;6349414;27;20362;-76
2024/02/23 11:50:29;;;;;;;;;;;;;;;;;;6349772;28;20320;-76
2024/02/23 11:53:29;;;;;;;;;;;;;;;;;;6351394;27;20400;-75
2024/02/23 11:56:29;;;;;;;;;;;;;;;;;;6360146;27;20392;-75
2024/02/23 11:59:30;;;;;;;;;;;;;;;;;;6367171;27;20014;-75
2024/02/23 12:02:30;;;;;;;;;;;;;;;;;;6355497;27;19912;-75
2024/02/23 12:05:30;;;;;;;;;;;;;;;;;;6367624;27;20320;-76
2024/02/23 12:08:31;;;;;;;;;;;;;;;;;;6364817;27;20356;-75
2024/02/23 12:11:31;;;;;;;;;;;;;;;;;;6357998;27;19912;-75
2024/02/23 12:14:31;;;;;;;;;;;;;;;;;;6348609;27;19923;-76
2024/02/23 12:17:31;;;;;;;;;;;;;;;;;;6361185;27;19920;-76
2024/02/23 12:20:31;;;;;;;;;;;;;;;;;;6358514;27;19914;-76
2024/02/23 12:23:32;;;;;;;;;;;;;;;;;;6348967;27;20434;-76
2024/02/23 12:26:32;;;;;;;;;;;;;;;;;;6357424;27;19915;-76
2024/02/23 12:29:32;;;;;;;;;;;;;;;;;;6348148;28;19918;-76
2024/02/23 12:32:32;;;;;;;;;;;;;;;;;;6350758;27;19944;-76
2024/02/23 12:35:32;;;;;;;;;;;;;;;;;;6374207;27;19919;-74
2024/02/23 12:38:33;;;;;;;;;;;;;;;;;;6374324;27;19923;-73
2024/02/23 12:41:33;;;;;;;;;;;;;;;;;;6363315;27;19934;-74
2024/02/23 12:44:33;;;;;;;;;;;;;;;;;;6358585;27;19915;-75
2024/02/23 12:47:33;;;;;;;;;;;;;;;;;;6354958;27;19919;-75
2024/02/23 12:50:33;;;;;;;;;;;;;;;;;;6373007;27;19915;-74
2024/02/23 12:53:34;;;;;;;;;;;;;;;;;;6373755;27;19919;-73
2024/02/23 12:56:34;;;;;;;;;;;;;;;;;;6358619;27;19972;-75
2024/02/23 12:59:34;;;;;;;;;;;;;;;;;;6370591;27;20283;-75
2024/02/23 13:02:34;;;;;;;;;;;;;;;;;;6349709;27;19990;-74
2024/02/23 13:05:34;;;;;;;;;;;;;;;;;;6354943;27;19912;-73
2024/02/23 13:08:34;;;;;;;;;;;;;;;;;;6367650;27;19923;-75
2024/02/23 13:11:35;;;;;;;;;;;;;;;;;;6346750;28;20012;-74
2024/02/23 13:14:35;;;;;;;;;;;;;;;;;;6330273;27;19920;-75
2024/02/23 13:17:35;;;;;;;;;;;;;;;;;;6318729;28;19934;-74
2024/02/23 13:20:35;;;;;;;;;;;;;;;;;;6318127;28;19919;-74
2024/02/23 13:23:36;;;;;;;;;;;;;;;;;;6319528;28;19966;-74
2024/02/23 13:26:36;;;;;;;;;;;;;;;;;;6317588;28;19912;-74
2024/02/23 13:29:37;;;;;;;;;;;;;;;;;;6318822;28;19912;-74
2024/02/23 13:32:37;;;;;;;;;;;;;;;;;;6339043;28;20395;-74
2024/02/23 13:35:37;;;;;;;;;;;;;;;;;;6324494;28;19934;-74
2024/02/23 13:38:39;;;;;;;;;;;;;;;;;;6333091;28;19972;-73
2024/02/23 13:41:39;;;;;;;;;;;;;;;;;;6332006;28;19919;-74
2024/02/23 13:44:39;;;;;;;;;;;;;;;;;;6324957;28;19913;-74
2024/02/23 13:47:39;;;;;;;;;;;;;;;;;;6326130;28;19935;-74
2024/02/23 13:50:39;;;;;;;;;;;;;;;;;;6325492;28;19937;-74
2024/02/23 13:53:40;;;;;;;;;;;;;;;;;;6344860;28;19911;-73
2024/02/23 13:56:40;;;;;;;;;;;;;;;;;;6336101;28;19935;-74
2024/02/23 13:59:40;;;;;;;;;;;;;;;;;;6322795;28;19935;-73
2024/02/23 14:02:40;;;;;;;;;;;;;;;;;;6338567;28;19916;-74
2024/02/23 14:05:44;;;;;;;;;;;;;;;;;;6330498;28;20300;-74
2024/02/23 14:08:47;;;;;;;;;;;;;;;;;;6326067;28;19908;-74
2024/02/23 14:11:47;;;;;;;;;;;;;;;;;;6342661;28;20304;-74
2024/02/23 14:14:47;;;;;;;;;;;;;;;;;;6334652;28;20015;-74
2024/02/23 14:17:49;;;;;;;;;;;;;;;;;;6325180;28;20314;-74
2024/02/23 14:20:49;;;;;;;;;;;;;;;;;;6336624;28;20038;-74
2024/02/23 14:23:49;;;;;;;;;;;;;;;;;;6325976;28;19912;-74
2024/02/23 14:26:49;;;;;;;;;;;;;;;;;;6323160;28;19916;-74
2024/02/23 14:29:49;;;;;;;;;;;;;;;;;;6322395;28;19927;-74
2024/02/23 14:32:49;;;;;;;;;;;;;;;;;;6324805;28;19927;-75
2024/02/23 14:35:49;;;;;;;;;;;;;;;;;;6328321;28;20046;-75
2024/02/23 14:38:50;;;;;;;;;;;;;;;;;;6333155;28;19919;-75
2024/02/23 14:41:50;;;;;;;;;;;;;;;;;;6353855;28;20300;-75
2024/02/23 14:44:50;;;;;;;;;;;;;;;;;;6352608;28;19977;-75
2024/02/23 14:47:50;;;;;;;;;;;;;;;;;;6347736;28;23770;-75
2024/02/23 14:50:51;;;;;;;;;;;;;;;;;;6333158;28;19912;-75
2024/02/23 14:53:51;;;;;;;;;;;;;;;;;;6330472;28;19911;-75
2024/02/23 14:56:51;;;;;;;;;;;;;;;;;;6351225;28;19916;-74
2024/02/23 14:59:51;;;;;;;;;;;;;;;;;;6347157;28;19916;-76
2024/02/23 15:02:51;;;;;;;;;;;;;;;;;;6334852;28;19943;-76
2024/02/23 15:05:52;;;;;;;;;;;;;;;;;;6330019;28;19998;-76
2024/02/23 15:08:52;;;;;;;;;;;;;;;;;;6331398;28;19912;-76
2024/02/23 15:11:52;;;;;;;;;;;;;;;;;;6335578;28;19992;-75
2024/02/23 15:14:52;;;;;;;;;;;;;;;;;;6321153;28;19981;-76
2024/02/23 15:17:54;;;;;;;;;;;;;;;;;;6331233;28;19931;-76
2024/02/23 15:20:54;;;;;;;;;;;;;;;;;;6327315;28;19918;-76
2024/02/23 15:23:54;;;;;;;;;;;;;;;;;;6330796;28;19916;-76
2024/02/23 15:26:55;;;;;;;;;;;;;;;;;;6326543;28;20011;-75
2024/02/23 15:29:55;;;;;;;;;;;;;;;;;;6332007;28;19965;-76
2024/02/23 15:32:55;;;;;;;;;;;;;;;;;;6328146;28;19912;-76
2024/02/23 15:35:56;;;;;;;;;;;;;;;;;;6328402;28;19966;-76
2024/02/23 15:38:59;;;;;;;;;;;;;;;;;;6325931;28;19987;-77
2024/02/23 15:41:59;;;;;;;;;;;;;;;;;;6329962;28;19920;-76
2024/02/23 15:44:59;;;;;;;;;;;;;;;;;;6330475;28;19916;-75
2024/02/23 15:47:59;;;;;;;;;;;;;;;;;;6325786;28;20020;-76
2024/02/23 15:50:59;;;;;;;;;;;;;;;;;;6326181;28;20158;-77
2024/02/23 15:53:59;;;;;;;;;;;;;;;;;;6327474;28;20075;-77
2024/02/23 15:57:00;;;;;;;;;;;;;;;;;;6332340;28;20017;-78
2024/02/23 16:00:00;;;;;;;;;;;;;;;;;;6328850;28;19943;-77
2024/02/23 16:03:00;;;;;;;;;;;;;;;;;;6327589;28;19912;-77
2024/02/23 16:06:00;;;;;;;;;;;;;;;;;;6331499;28;20334;-76
2024/02/23 16:09:01;;;;;;;;;;;;;;;;;;6343194;28;19993;-77
2024/02/23 16:12:01;;;;;;;;;;;;;;;;;;6325629;28;20425;-77
2024/02/23 16:15:01;;;;;;;;;;;;;;;;;;6326191;28;19928;-77
2024/02/23 16:18:01;;;;;;;;;;;;;;;;;;6343077;28;19920;-76
2024/02/23 16:21:01;;;;;;;;;;;;;;;;;;6347113;28;19951;-77
2024/02/23 16:24:01;;;;;;;;;;;;;;;;;;6342753;28;19919;-76
2024/02/23 16:27:02;;;;;;;;;;;;;;;;;;6323464;28;20344;-76
2024/02/23 16:30:02;;;;;;;;;;;;;;;;;;6322468;28;19982;-77
2024/02/23 16:33:02;;;;;;;;;;;;;;;;;;6344826;28;19907;-77
2024/02/23 16:36:02;;;;;;;;;;;;;;;;;;6348853;28;20636;-76
2024/02/23 16:39:03;;;;;;;;;;;;;;;;;;6333661;28;19920;-77
2024/02/23 16:42:03;;;;;;;;;;;;;;;;;;6322332;28;20366;-77
2024/02/23 16:45:04;;;;;;;;;;;;;;;;;;6320698;28;19908;-77
2024/02/23 16:48:07;;;;;;;;;;;;;;;;;;6324780;28;20379;-77
2024/02/23 16:51:07;;;;;;;;;;;;;;;;;;6346041;28;19919;-77
2024/02/23 16:54:07;;;;;;;;;;;;;;;;;;6348140;28;19912;-77
2024/02/23 16:57:09;;;;;;;;;;;;;;;;;;6334241;28;19920;-77
2024/02/23 17:00:10;;;;;;;;;;;;;;;;;;6330489;28;20269;-77
2024/02/23 17:03:10;;;;;;;;;;;;;;;;;;6348065;28;19994;-77
2024/02/23 17:06:10;;;;;;;;;;;;;;;;;;6344156;28;19912;-77
2024/02/23 17:09:10;;;;;;;;;;;;;;;;;;6346879;28;19912;-77
2024/02/23 17:12:10;;;;;;;;;;;;;;;;;;6326691;28;19919;-77
2024/02/23 17:15:10;;;;;;;;;;;;;;;;;;6367057;27;19963;-77
2024/02/23 17:18:11;;;;;;;;;;;;;;;;;;6347704;28;20018;-77
2024/02/23 17:21:11;;;;;;;;;;;;;;;;;;6347806;28;19947;-79
2024/02/23 17:24:11;;;;;;;;;;;;;;;;;;6356113;28;19952;-79
2024/02/23 17:27:11;;;;;;;;;;;;;;;;;;6355517;28;19919;-79
2024/02/23 17:30:11;;;;;;;;;;;;;;;;;;6351533;28;19951;-80
2024/02/23 17:33:11;;;;;;;;;;;;;;;;;;6348550;28;19912;-79
2024/02/23 17:36:11;;;;;;;;;;;;;;;;;;6347944;28;19957;-79
2024/02/23 17:39:11;;;;;;;;;;;;;;;;;;6348605;28;19969;-80
2024/02/23 17:42:12;;;;;;;;;;;;;;;;;;6348067;28;19908;-80
2024/02/23 17:45:12;;;;;;;;;;;;;;;;;;6346598;28;19908;-79
2024/02/23 17:48:12;;;;;;;;;;;;;;;;;;6361211;28;19912;-79
2024/02/23 17:51:12;;;;;;;;;;;;;;;;;;6346690;28;19982;-79
2024/02/23 17:54:12;;;;;;;;;;;;;;;;;;6352182;28;20269;-79
2024/02/23 17:57:12;;;;;;;;;;;;;;;;;;6348293;28;20352;-79
2024/02/23 18:00:13;;;;;;;;;;;;;;;;;;6371669;27;19907;-79
2024/02/23 18:03:13;;;;;;;;;;;;;;;;;;6378471;27;19917;-79
2024/02/23 18:06:17;;;;;;;;;;;;;;;;;;6376879;27;19911;-79
2024/02/23 18:09:17;;;;;;;;;;;;;;;;;;6361121;27;20267;-79
2024/02/23 18:12:17;;;;;;;;;;;;;;;;;;6371048;27;20374;-80
2024/02/23 18:15:17;;;;;;;;;;;;;;;;;;6357671;27;19918;-79
2024/02/23 18:18:18;;;;;;;;;;;;;;;;;;6358583;27;19915;-79
2024/02/23 18:21:18;;;;;;;;;;;;;;;;;;6375092;27;19908;-79
2024/02/23 18:24:18;;;;;;;;;;;;;;;;;;6377959;27;19958;-79
2024/02/23 18:27:18;;;;;;;;;;;;;;;;;;6358494;27;19908;-79
2024/02/23 18:30:19;;;;;;;;;;;;;;;;;;6358197;27;19907;-79
2024/02/23 18:33:19;;;;;;;;;;;;;;;;;;6353046;28;19915;-79
2024/02/23 18:36:20;;;;;;;;;;;;;;;;;;6349669;27;19912;-79
2024/02/23 18:39:20;;;;;;;;;;;;;;;;;;6352265;28;19916;-79
2024/02/23 18:42:20;;;;;;;;;;;;;;;;;;6361213;27;19912;-79
2024/02/23 18:45:20;;;;;;;;;;;;;;;;;;6375735;27;19911;-79
2024/02/23 18:48:20;;;;;;;;;;;;;;;;;;6370155;27;20040;-79
2024/02/23 18:51:21;;;;;;;;;;;;;;;;;;6351336;28;19908;-79
2024/02/23 18:54:21;;;;;;;;;;;;;;;;;;6349010;27;19912;-79
2024/02/23 18:57:21;;;;;;;;;;;;;;;;;;6351761;28;20256;-79
2024/02/23 19:00:21;;;;;;;;;;;;;;;;;;6350937;28;19911;-79
2024/02/23 19:03:22;;;;;;;;;;;;;;;;;;6352009;27;20280;-79
2024/02/23 19:06:22;;;;;;;;;;;;;;;;;;6362706;27;20285;-79
2024/02/23 19:09:22;;;;;;;;;;;;;;;;;;6355399;27;19915;-79
2024/02/23 19:12:22;;;;;;;;;;;;;;;;;;6367407;27;19955;-79
2024/02/23 19:15:22;;;;;;;;;;;;;;;;;;6335390;28;19920;-79
2024/02/23 19:18:23;;;;;;;;;;;;;;;;;;6332964;28;19977;-79
2024/02/23 19:21:23;;;;;;;;;;;;;;;;;;6350911;28;19908;-80
2024/02/23 19:24:27;;;;;;;;;;;;;;;;;;6351173;28;19911;-79
2024/02/23 19:27:27;;;;;;;;;;;;;;;;;;6344124;28;19912;-79
2024/02/23 19:30:28;;;;;;;;;;;;;;;;;;6327037;28;19908;-79
2024/02/23 19:33:29;;;;;;;;;;;;;;;;;;6321306;28;19919;-79
2024/02/23 19:36:29;;;;;;;;;;;;;;;;;;6326798;28;19908;-80
2024/02/23 19:39:30;;;;;;;;;;;;;;;;;;6344838;28;20018;-79
2024/02/23 19:42:30;;;;;;;;;;;;;;;;;;6336898;28;19915;-79
2024/02/23 19:45:30;;;;;;;;;;;;;;;;;;6318571;28;19911;-79
2024/02/23 19:48:30;;;;;;;;;;;;;;;;;;6344501;28;20428;-79
2024/02/23 19:51:30;;;;;;;;;;;;;;;;;;6333309;28;19930;-79
2024/02/23 19:54:30;;;;;;;;;;;;;;;;;;6348508;28;19912;-80
2024/02/23 19:57:31;;;;;;;;;;;;;;;;;;6350023;28;19919;-79
2024/02/23 20:00:31;;;;;;;;;;;;;;;;;;6340552;28;19907;-79
2024/02/23 20:03:31;;;;;;;;;;;;;;;;;;6349036;28;19907;-80
2024/02/23 20:06:31;;;;;;;;;;;;;;;;;;6348917;28;19977;-79
2024/02/23 20:09:31;;;;;;;;;;;;;;;;;;6339589;28;19908;-79
2024/02/23 20:12:31;;;;;;;;;;;;;;;;;;6339506;28;19941;-80
2024/02/23 20:15:31;;;;;;;;;;;;;;;;;;6338432;28;20415;-80
2024/02/23 20:18:32;;;;;;;;;;;;;;;;;;6331622;28;19923;-80
2024/02/23 20:21:32;;;;;;;;;;;;;;;;;;6349064;28;19915;-80
2024/02/23 20:24:32;;;;;;;;;;;;;;;;;;6334220;28;19908;-80
2024/02/23 20:27:32;;;;;;;;;;;;;;;;;;6346170;28;19912;-80
2024/02/23 20:30:32;;;;;;;;;;;;;;;;;;6345558;28;20345;-80